Time;durP1;ratioP1;P1;durP2;ratioP2;P2;SDS_P1;SDS_P2;PMS_P1;PMS_P2;Temp;Humidity;BMP_temperature;BMP_pressure;BME280_temperature;BME280_humidity;BME280_pressure;Samples;Min_cycle;Max_cycle;Signal;HPM_P1;HPM_P2
2021/12/30 00:01:22;;;;;;;27.85;5.15;;;8.40;99.90;;;;;;4918528;29;20136;-63
2021/12/30 00:03:48;;;;;;;33.88;5.20;;;8.40;99.90;;;;;;4900490;29;20127;-62
2021/12/30 00:06:17;;;;;;;34.00;6.25;;;8.40;99.90;;;;;;4941461;29;20603;-62
2021/12/30 00:08:43;;;;;;;35.55;6.50;;;8.40;99.90;;;;;;4926327;29;20048;-62
2021/12/30 00:11:09;;;;;;;38.20;6.10;;;8.40;99.90;;;;;;4909691;29;20056;-62
2021/12/30 00:13:36;;;;;;;37.22;6.25;;;8.40;99.90;;;;;;4915660;29;20589;-62
2021/12/30 00:16:02;;;;;;;30.92;6.15;;;8.40;99.90;;;;;;4926183;29;20044;-62
2021/12/30 00:18:28;;;;;;;34.65;6.80;;;8.40;99.90;;;;;;4926718;29;20098;-62
2021/12/30 00:20:54;;;;;;;41.42;6.40;;;8.40;99.90;;;;;;4926587;29;20040;-62
2021/12/30 00:23:20;;;;;;;34.50;6.05;;;8.40;99.90;;;;;;4923038;29;20217;-62
2021/12/30 00:25:48;;;;;;;36.78;6.63;;;8.30;99.90;;;;;;4899155;29;20485;-62
2021/12/30 00:28:19;;;;;;;45.90;6.93;;;8.30;99.90;;;;;;4928566;29;20111;-62
2021/12/30 00:30:46;;;;;;;40.45;6.82;;;8.30;99.90;;;;;;4909396;29;20115;-62
2021/12/30 00:33:12;;;;;;;;;;;8.30;99.90;;;;;;4909053;29;20043;-62
2021/12/30 00:35:38;;;;;;;40.05;7.75;;;8.30;99.90;;;;;;4926137;29;19927;-62
2021/12/30 00:38:05;;;;;;;38.78;7.60;;;8.30;99.90;;;;;;4909018;29;20156;-62
2021/12/30 00:40:32;;;;;;;39.70;7.60;;;8.30;99.90;;;;;;4909256;29;20040;-62
2021/12/30 00:42:59;;;;;;;;;;;8.30;99.90;;;;;;4892426;29;20139;-62
2021/12/30 00:45:29;;;;;;;42.72;8.13;;;8.30;99.90;;;;;;4925868;29;19927;-62
2021/12/30 00:47:55;;;;;;;48.83;7.32;;;8.30;99.90;;;;;;4940317;29;20068;-62
2021/12/30 00:50:23;;;;;;;40.22;6.68;;;8.30;99.90;;;;;;4926644;29;20040;-62
2021/12/30 00:52:49;;;;;;;46.83;7.05;;;8.30;99.90;;;;;;4896945;29;20124;-62
2021/12/30 00:55:15;;;;;;;48.03;8.13;;;8.30;99.90;;;;;;4927464;29;20067;-63
2021/12/30 00:57:42;;;;;;;49.10;8.27;;;8.30;99.90;;;;;;4930181;29;20296;-62
2021/12/30 01:00:13;;;;;;;48.30;8.70;;;8.30;99.90;;;;;;4912727;29;20488;-62
2021/12/30 01:02:38;;;;;;;51.92;7.88;;;8.30;99.90;;;;;;4912697;29;20095;-63
2021/12/30 01:05:05;;;;;;;55.75;8.20;;;8.30;99.90;;;;;;4928209;29;20076;-62
2021/12/30 01:07:32;;;;;;;50.75;9.52;;;8.30;99.90;;;;;;4929623;29;20048;-62
2021/12/30 01:09:59;;;;;;;42.67;8.13;;;8.30;99.90;;;;;;4912733;29;20066;-62
2021/12/30 01:12:24;;;;;;;60.92;9.35;;;8.30;99.90;;;;;;4929720;29;20048;-62
2021/12/30 01:14:51;;;;;;;53.05;8.75;;;8.20;99.90;;;;;;4928802;29;20052;-62
2021/12/30 01:17:23;;;;;;;53.08;9.23;;;8.20;99.90;;;;;;4911072;29;20072;-62
2021/12/30 01:19:51;;;;;;;62.53;9.30;;;8.20;99.90;;;;;;4929890;29;20067;-62
2021/12/30 01:22:23;;;;;;;56.67;10.45;;;8.10;99.90;;;;;;4912655;29;20146;-62
2021/12/30 01:24:49;;;;;;;58.85;9.50;;;8.10;99.90;;;;;;4929691;29;20044;-62
2021/12/30 01:27:15;;;;;;;58.45;9.02;;;8.10;99.90;;;;;;4911923;29;20044;-62
2021/12/30 01:29:41;;;;;;;64.30;10.38;;;8.00;99.90;;;;;;4930011;29;20518;-62
2021/12/30 01:32:07;;;;;;;53.90;8.93;;;8.10;99.90;;;;;;4911993;29;20040;-62
2021/12/30 01:34:33;;;;;;;67.88;9.13;;;8.00;99.90;;;;;;4929601;29;20483;-62
2021/12/30 01:37:04;;;;;;;52.30;8.48;;;8.00;99.90;;;;;;4910002;29;20060;-62
2021/12/30 01:39:32;;;;;;;59.25;8.35;;;8.00;99.90;;;;;;4929337;29;20052;-62
2021/12/30 01:41:59;;;;;;;53.92;9.48;;;8.00;99.90;;;;;;4943969;29;20048;-62
2021/12/30 01:44:28;;;;;;;68.53;10.32;;;8.00;99.90;;;;;;4927712;29;20051;-62
2021/12/30 01:46:54;;;;;;;51.17;9.07;;;8.00;99.90;;;;;;4926957;29;20116;-62
2021/12/30 01:49:21;;;;;;;53.80;9.35;;;8.00;99.90;;;;;;4942773;29;20071;-62
2021/12/30 01:51:49;;;;;;;62.50;9.07;;;8.00;99.90;;;;;;4911503;29;20099;-63
2021/12/30 01:54:15;;;;;;;60.30;8.85;;;8.00;99.90;;;;;;4929499;29;20771;-62
2021/12/30 01:56:41;;;;;;;53.35;8.63;;;7.90;99.90;;;;;;4928897;29;20044;-62
2021/12/30 01:59:07;;;;;;;56.20;10.32;;;7.90;99.90;;;;;;4942235;29;20103;-62
2021/12/30 02:01:34;;;;;;;53.20;9.23;;;7.90;99.90;;;;;;4928173;29;20063;-62
2021/12/30 02:03:59;;;;;;;66.95;10.30;;;7.90;99.90;;;;;;4911180;29;20099;-62
2021/12/30 02:06:26;;;;;;;51.15;9.60;;;7.90;99.90;;;;;;4929084;29;20048;-62
2021/12/30 02:08:52;;;;;;;55.42;9.00;;;7.80;99.90;;;;;;4906044;29;20044;-62
2021/12/30 02:11:19;;;;;;;50.20;9.40;;;7.90;99.90;;;;;;4893352;29;20162;-62
2021/12/30 02:13:46;;;;;;;56.00;8.65;;;7.80;99.90;;;;;;4928239;29;20103;-63
2021/12/30 02:16:12;;;;;;;57.45;9.23;;;7.80;99.90;;;;;;4928772;29;20067;-62
2021/12/30 02:18:38;;;;;;;47.47;8.18;;;7.80;99.90;;;;;;4927668;29;20055;-62
2021/12/30 02:21:03;;;;;;;55.03;9.77;;;7.80;99.90;;;;;;4941873;29;20052;-62
2021/12/30 02:23:34;;;;;;;52.90;7.87;;;7.90;99.90;;;;;;4928263;29;20123;-62
2021/12/30 02:26:07;;;;;;;43.85;7.40;;;7.90;99.90;;;;;;4895582;29;20371;-62
2021/12/30 02:28:35;;;;;;;67.47;9.63;;;7.90;99.90;;;;;;4911171;29;20056;-63
2021/12/30 02:31:06;;;;;;;50.45;8.07;;;7.90;99.90;;;;;;4900353;29;20056;-63
2021/12/30 02:33:31;;;;;;;51.22;7.45;;;7.90;99.90;;;;;;4924320;29;20166;-63
2021/12/30 02:35:57;;;;;;;53.72;9.02;;;7.90;99.90;;;;;;4922347;29;20191;-63
2021/12/30 02:38:24;;;;;;;58.13;8.47;;;7.90;99.90;;;;;;4920762;29;20048;-63
2021/12/30 02:40:53;;;;;;;52.50;9.90;;;7.90;99.90;;;;;;4923206;29;20303;-63
2021/12/30 02:43:25;;;;;;;51.67;7.63;;;7.90;99.90;;;;;;4924887;29;20055;-63
2021/12/30 02:45:52;;;;;;;52.83;8.48;;;7.90;99.90;;;;;;4947939;29;20056;-64
2021/12/30 02:48:20;;;;;;;41.65;7.60;;;7.90;99.90;;;;;;4928008;29;20047;-64
2021/12/30 02:50:47;;;;;;;56.30;8.63;;;7.90;99.90;;;;;;4911278;29;20064;-63
2021/12/30 02:53:14;;;;;;;55.90;8.55;;;7.90;99.90;;;;;;4910660;29;20055;-63
2021/12/30 02:55:43;;;;;;;;;;;7.90;99.90;;;;;;4911764;29;20139;-63
2021/12/30 02:58:10;;;;;;;53.58;10.00;;;7.80;99.90;;;;;;4911437;29;19923;-63
2021/12/30 03:00:37;;;;;;;59.65;9.80;;;7.90;99.90;;;;;;4911660;29;20085;-63
2021/12/30 03:03:03;;;;;;;56.65;9.05;;;7.90;99.90;;;;;;4900642;29;20054;-63
2021/12/30 03:05:29;;;;;;;54.58;10.05;;;7.90;99.90;;;;;;4928410;29;20052;-63
2021/12/30 03:07:55;;;;;;;61.40;9.30;;;7.90;99.90;;;;;;4910892;29;20152;-63
2021/12/30 03:10:23;;;;;;;66.10;9.45;;;7.90;99.90;;;;;;4928722;29;20048;-63
2021/12/30 03:12:56;;;;;;;57.08;10.18;;;7.90;99.90;;;;;;4906267;29;20036;-63
2021/12/30 03:15:27;;;;;;;53.08;9.85;;;7.90;99.90;;;;;;4927274;29;20057;-63
2021/12/30 03:17:53;;;;;;;65.47;10.23;;;7.90;99.90;;;;;;4927899;29;20052;-64
2021/12/30 03:20:19;;;;;;;63.90;9.98;;;7.90;99.90;;;;;;4928224;29;20047;-63
2021/12/30 03:22:45;;;;;;;69.63;11.53;;;7.90;99.90;;;;;;4926878;29;20511;-64
2021/12/30 03:25:14;;;;;;;72.88;10.63;;;7.90;99.90;;;;;;4926023;29;20327;-63
2021/12/30 03:27:40;;;;;;;68.57;12.30;;;8.00;99.90;;;;;;4927953;29;20040;-63
2021/12/30 03:30:11;;;;;;;75.13;12.90;;;8.00;99.90;;;;;;4910481;29;20060;-63
2021/12/30 03:32:36;;;;;;;60.00;11.57;;;8.00;99.90;;;;;;4927970;29;20055;-63
2021/12/30 03:35:03;;;;;;;71.77;12.03;;;8.00;99.90;;;;;;4926143;29;20064;-63
2021/12/30 03:37:29;;;;;;;70.47;12.27;;;8.10;99.90;;;;;;4927972;29;20052;-64
2021/12/30 03:39:55;;;;;;;70.77;13.03;;;8.10;99.90;;;;;;4927592;29;20059;-64
2021/12/30 03:42:20;;;;;;;72.27;13.87;;;8.10;99.90;;;;;;4927646;29;20304;-64
2021/12/30 03:44:46;;;;;;;80.77;13.53;;;8.10;99.90;;;;;;4941260;29;20044;-64
2021/12/30 03:47:16;;;;;;;74.82;13.93;;;8.20;99.90;;;;;;4934952;29;20614;-64
2021/12/30 03:49:46;;;;;;;62.38;12.30;;;8.20;99.90;;;;;;4917672;29;20055;-64
2021/12/30 03:52:23;;;;;;;75.72;14.45;;;8.20;99.90;;;;;;4927401;29;20048;-64
2021/12/30 03:54:49;;;;;;;62.72;13.50;;;8.20;99.90;;;;;;4926130;29;20044;-64
2021/12/30 03:57:15;;;;;;;94.18;15.30;;;8.20;99.90;;;;;;4908591;29;20056;-64
2021/12/30 03:59:41;;;;;;;69.18;15.45;;;8.30;99.90;;;;;;4919051;29;20067;-64
2021/12/30 04:02:07;;;;;;;64.60;14.60;;;8.30;99.90;;;;;;4927850;29;20044;-65
2021/12/30 04:04:33;;;;;;;85.65;16.08;;;8.30;99.90;;;;;;4909918;29;20321;-64
2021/12/30 04:06:59;;;;;;;;;;;8.30;99.90;;;;;;4926044;29;20096;-64
2021/12/30 04:09:25;;;;;;;75.03;15.45;;;8.20;99.90;;;;;;4925810;29;20104;-64
2021/12/30 04:11:50;;;;;;;90.97;16.52;;;8.30;99.90;;;;;;4909959;29;20060;-64
2021/12/30 04:14:16;;;;;;;69.65;15.10;;;8.30;99.90;;;;;;4927557;29;20091;-65
2021/12/30 04:16:42;;;;;;;73.57;15.30;;;8.40;99.90;;;;;;4904095;29;20075;-64
2021/12/30 04:19:08;;;;;;;78.43;15.70;;;8.30;99.90;;;;;;4899193;29;20394;-64
2021/12/30 04:21:36;;;;;;;69.90;14.35;;;8.40;99.90;;;;;;4926646;29;20837;-64
2021/12/30 04:24:03;;;;;;;74.80;16.10;;;8.40;99.90;;;;;;4909518;29;20117;-64
2021/12/30 04:26:29;;;;;;;73.13;15.32;;;8.40;99.90;;;;;;4906805;29;20124;-64
2021/12/30 04:28:56;;;;;;;74.93;14.13;;;8.40;99.90;;;;;;4939466;29;20059;-64
2021/12/30 04:31:23;;;;;;;63.53;14.20;;;8.50;99.90;;;;;;4894096;29;20059;-64
2021/12/30 04:33:48;;;;;;;72.25;15.27;;;8.50;99.90;;;;;;4909334;29;20356;-64
2021/12/30 04:36:14;;;;;;;73.22;13.77;;;8.60;99.90;;;;;;4927116;29;20066;-64
2021/12/30 04:38:40;;;;;;;69.03;13.52;;;8.50;99.90;;;;;;4908105;29;20078;-64
2021/12/30 04:41:07;;;;;;;72.72;14.15;;;8.60;99.90;;;;;;4906976;29;20051;-64
2021/12/30 04:43:32;;;;;;;;;;;8.60;99.90;;;;;;4909929;29;20056;-64
2021/12/30 04:45:59;;;;;;;82.20;14.05;;;8.70;99.90;;;;;;4926480;29;19931;-64
2021/12/30 04:48:25;;;;;;;83.72;15.07;;;8.70;99.90;;;;;;4926290;29;20040;-64
2021/12/30 04:50:51;;;;;;;89.60;15.07;;;8.80;99.90;;;;;;4940886;29;20070;-64
2021/12/30 04:53:20;;;;;;;81.90;15.80;;;8.80;99.90;;;;;;4909247;29;20056;-64
2021/12/30 04:55:47;;;;;;;71.05;15.23;;;8.90;99.90;;;;;;4926330;29;20415;-64
2021/12/30 04:58:13;;;;;;;75.95;15.60;;;8.90;99.90;;;;;;4926546;29;20354;-64
2021/12/30 05:00:39;;;;;;;;;;;8.90;99.90;;;;;;4908191;29;20080;-64
2021/12/30 05:03:10;;;;;;;69.07;15.20;;;8.90;99.90;;;;;;4926978;29;19923;-64
2021/12/30 05:05:45;;;;;;;88.00;16.35;;;9.00;99.90;;;;;;4909068;29;20060;-64
2021/12/30 05:08:11;;;;;;;75.75;16.60;;;9.00;99.90;;;;;;4909296;29;20048;-64
2021/12/30 05:10:37;;;;;;;81.70;16.80;;;9.10;99.90;;;;;;4904612;29;20082;-64
2021/12/30 05:13:05;;;;;;;91.18;19.30;;;9.10;99.90;;;;;;4909392;29;20052;-64
2021/12/30 05:15:32;;;;;;;102.70;20.45;;;9.20;99.90;;;;;;4909064;29;20072;-64
2021/12/30 05:17:58;;;;;;;107.82;21.42;;;9.20;99.90;;;;;;4926652;29;20042;-65
2021/12/30 05:20:24;;;;;;;89.20;20.73;;;9.30;99.90;;;;;;4908232;29;20052;-64
2021/12/30 05:22:49;;;;;;;108.32;21.02;;;9.30;99.90;;;;;;4925819;29;20141;-64
2021/12/30 05:25:18;;;;;;;89.70;21.73;;;9.40;99.90;;;;;;4926255;29;20139;-64
2021/12/30 05:27:44;;;;;;;99.38;22.63;;;9.40;99.90;;;;;;4909297;29;20127;-64
2021/12/30 05:30:12;;;;;;;107.57;24.67;;;9.40;99.90;;;;;;4909447;29;20056;-64
2021/12/30 05:32:38;;;;;;;106.15;25.33;;;9.50;99.90;;;;;;4913618;29;20100;-64
2021/12/30 05:35:05;;;;;;;103.55;26.00;;;9.60;99.90;;;;;;4905729;29;20053;-64
2021/12/30 05:37:32;;;;;;;116.47;25.17;;;9.70;99.90;;;;;;4936322;29;20056;-64
2021/12/30 05:39:58;;;;;;;102.93;24.75;;;9.70;99.90;;;;;;4930074;29;20044;-64
2021/12/30 05:42:24;;;;;;;;;;;9.80;99.90;;;;;;4943164;29;20063;-64
2021/12/30 05:44:54;;;;;;;126.35;26.70;;;9.80;99.90;;;;;;4929889;29;19935;-64
2021/12/30 05:47:20;;;;;;;107.88;27.38;;;9.90;99.90;;;;;;4927801;29;20131;-64
2021/12/30 05:49:46;;;;;;;124.07;27.02;;;9.90;99.90;;;;;;4931545;29;20051;-64
2021/12/30 05:52:12;;;;;;;112.93;27.08;;;9.90;99.90;;;;;;4936343;29;20047;-64
2021/12/30 05:54:39;;;;;;;108.18;25.90;;;9.90;99.90;;;;;;4911206;29;20060;-64
2021/12/30 05:57:05;;;;;;;101.35;25.33;;;9.90;99.90;;;;;;4918352;29;20093;-65
2021/12/30 05:59:31;;;;;;;99.43;25.08;;;9.90;99.90;;;;;;4929895;29;20048;-64
2021/12/30 06:01:56;;;;;;;100.15;23.98;;;10.00;99.90;;;;;;4929392;29;20084;-64
2021/12/30 06:04:22;;;;;;;79.40;22.23;;;10.00;99.90;;;;;;4911013;29;20405;-64
2021/12/30 06:06:48;;;;;;;65.07;20.70;;;10.00;99.90;;;;;;4943655;29;20131;-64
2021/12/30 06:09:14;;;;;;;71.33;20.10;;;10.00;99.90;;;;;;4929539;29;20323;-64
2021/12/30 06:11:39;;;;;;;58.45;19.13;;;10.00;99.90;;;;;;4911979;29;20048;-65
2021/12/30 06:14:05;;;;;;;53.33;18.60;;;10.00;99.90;;;;;;4921980;29;20067;-65
2021/12/30 06:16:33;;;;;;;49.22;19.15;;;10.00;99.90;;;;;;4909307;29;20300;-65
2021/12/30 06:18:59;;;;;;;50.70;18.65;;;10.10;99.90;;;;;;4929506;29;20052;-64
2021/12/30 06:21:25;;;;;;;47.67;17.35;;;10.10;99.90;;;;;;4911662;29;20098;-64
2021/12/30 06:23:52;;;;;;;;;;;10.10;99.90;;;;;;4910445;29;20056;-64
2021/12/30 06:26:17;;;;;;;41.58;16.23;;;10.10;99.90;;;;;;4936480;29;19960;-64
2021/12/30 06:28:43;;;;;;;51.92;17.08;;;10.10;99.90;;;;;;4935165;29;20044;-63
2021/12/30 06:31:09;;;;;;;54.67;17.63;;;10.10;99.90;;;;;;4923002;29;20063;-64
2021/12/30 06:33:35;;;;;;;61.47;19.83;;;10.20;99.90;;;;;;4940727;29;20036;-64
2021/12/30 06:36:00;;;;;;;51.80;18.73;;;10.20;99.90;;;;;;4899257;29;20129;-64
2021/12/30 06:38:26;;;;;;;68.03;21.30;;;10.20;99.90;;;;;;4918480;29;20299;-64
2021/12/30 06:40:52;;;;;;;61.25;19.42;;;10.20;99.90;;;;;;4911775;29;20293;-65
2021/12/30 06:43:17;;;;;;;68.85;19.98;;;10.20;99.90;;;;;;4928728;29;20052;-64
2021/12/30 06:45:44;;;;;;;72.60;20.87;;;10.20;99.90;;;;;;4894852;29;20052;-64
2021/12/30 06:48:14;;;;;;;72.22;21.63;;;10.30;99.90;;;;;;4928234;29;20314;-64
2021/12/30 06:50:40;;;;;;;78.80;22.00;;;10.30;99.90;;;;;;4946333;29;20051;-64
2021/12/30 06:53:06;;;;;;;;;;;10.30;99.90;;;;;;4935616;29;20127;-65
2021/12/30 06:55:31;;;;;;;79.07;21.02;;;10.30;99.90;;;;;;4943423;29;19965;-65
2021/12/30 06:57:57;;;;;;;80.13;21.43;;;10.30;99.90;;;;;;4897033;29;20076;-65
2021/12/30 07:00:23;;;;;;;109.35;24.58;;;10.40;99.90;;;;;;4928347;29;20307;-65
2021/12/30 07:02:49;;;;;;;74.85;21.17;;;10.40;99.90;;;;;;4926916;29;20762;-65
2021/12/30 07:05:14;;;;;;;95.88;21.85;;;10.40;99.90;;;;;;4928272;29;20546;-65
2021/12/30 07:07:41;;;;;;;68.40;19.90;;;10.40;99.90;;;;;;4924499;29;20139;-66
2021/12/30 07:10:07;;;;;;;72.68;19.50;;;10.40;99.90;;;;;;4911084;29;20349;-65
2021/12/30 07:12:32;;;;;;;80.43;20.15;;;10.40;99.90;;;;;;4910706;29;20131;-67
2021/12/30 07:14:58;;;;;;;76.75;19.10;;;10.40;99.90;;;;;;4927805;29;20489;-67
2021/12/30 07:17:26;;;;;;;68.40;18.67;;;10.40;99.90;;;;;;4909669;29;20791;-64
2021/12/30 07:19:52;;;;;;;64.35;17.27;;;10.50;99.90;;;;;;4927943;29;20064;-65
2021/12/30 07:22:17;;;;;;;60.65;17.15;;;10.50;99.90;;;;;;4926602;29;20055;-66
2021/12/30 07:24:43;;;;;;;51.47;17.15;;;10.50;99.90;;;;;;4909830;29;20068;-67
2021/12/30 07:27:09;;;;;;;40.30;15.35;;;10.50;99.90;;;;;;4910358;29;20725;-67
2021/12/30 07:29:35;;;;;;;56.90;15.90;;;10.50;99.90;;;;;;4893208;29;20477;-70
2021/12/30 07:32:00;;;;;;;55.08;15.82;;;10.60;99.90;;;;;;4941634;29;20044;-66
2021/12/30 07:34:26;;;;;;;50.33;15.32;;;10.60;99.90;;;;;;4927276;29;20060;-64
2021/12/30 07:36:52;;;;;;;47.60;14.50;;;10.60;99.90;;;;;;4926673;29;20056;-67
2021/12/30 07:39:17;;;;;;;43.20;13.37;;;10.60;99.90;;;;;;4910101;29;20040;-64
2021/12/30 07:41:43;;;;;;;41.67;15.37;;;10.60;99.90;;;;;;4911637;29;20052;-65
2021/12/30 07:44:09;;;;;;;40.42;13.68;;;10.60;99.90;;;;;;4923415;29;20330;-64
2021/12/30 07:46:41;;;;;;;32.28;13.30;;;10.60;99.90;;;;;;4923510;29;20084;-64
2021/12/30 07:49:07;;;;;;;39.75;13.52;;;10.70;99.90;;;;;;4909205;29;20059;-64
2021/12/30 07:51:33;;;;;;;34.35;13.85;;;10.70;99.90;;;;;;4922572;29;20176;-63
2021/12/30 07:53:59;;;;;;;41.30;13.65;;;10.70;99.90;;;;;;4922217;29;21583;-65
2021/12/30 07:56:24;;;;;;;38.97;12.27;;;10.70;99.90;;;;;;4909977;29;20095;-64
2021/12/30 07:58:50;;;;;;;34.53;12.17;;;10.70;99.90;;;;;;4908312;29;20064;-64
2021/12/30 08:01:16;;;;;;;32.07;12.13;;;10.70;99.90;;;;;;4922829;29;20304;-63
2021/12/30 08:03:42;;;;;;;33.97;12.35;;;10.70;99.90;;;;;;4908877;29;20328;-63
2021/12/30 08:06:08;;;;;;;26.52;11.05;;;10.80;99.90;;;;;;4908691;29;20052;-64
2021/12/30 08:08:34;;;;;;;24.77;10.52;;;10.80;99.90;;;;;;4911640;29;20076;-63
2021/12/30 08:11:00;;;;;;;21.10;10.27;;;10.80;99.90;;;;;;4923696;29;20040;-64
2021/12/30 08:13:27;;;;;;;21.80;10.30;;;10.80;99.90;;;;;;4912382;29;20130;-65
2021/12/30 08:15:53;;;;;;;21.52;10.75;;;10.90;99.90;;;;;;4923077;29;20060;-64
2021/12/30 08:18:19;;;;;;;22.42;9.68;;;10.90;99.90;;;;;;4928418;29;20126;-66
2021/12/30 08:20:45;;;;;;;17.35;10.02;;;10.80;99.90;;;;;;4910572;29;20155;-64
2021/12/30 08:23:11;;;;;;;13.27;8.23;;;10.90;99.90;;;;;;4910111;29;20040;-63
2021/12/30 08:25:37;;;;;;;14.23;7.90;;;10.90;99.90;;;;;;4930628;29;20052;-64
2021/12/30 08:28:03;;;;;;;14.98;8.30;;;10.90;99.90;;;;;;4926084;29;20069;-64
2021/12/30 08:30:29;;;;;;;13.45;7.57;;;10.90;99.90;;;;;;4923468;29;20043;-62
2021/12/30 08:32:55;;;;;;;10.55;6.53;;;10.90;99.90;;;;;;4929330;29;20067;-61
2021/12/30 08:35:21;;;;;;;9.02;5.82;;;11.00;99.90;;;;;;4928123;29;20060;-62
2021/12/30 08:37:48;;;;;;;10.18;6.30;;;11.00;99.90;;;;;;4926798;29;20048;-61
2021/12/30 08:40:15;;;;;;;13.70;6.68;;;11.00;99.90;;;;;;4921543;29;20083;-61
2021/12/30 08:42:42;;;;;;;10.50;6.43;;;11.10;99.90;;;;;;4925556;29;20044;-67
2021/12/30 08:45:09;;;;;;;12.18;6.97;;;11.10;99.90;;;;;;4927422;29;20158;-63
2021/12/30 08:47:36;;;;;;;14.60;7.53;;;11.10;99.90;;;;;;4925633;29;20052;-64
2021/12/30 08:50:07;;;;;;;18.27;8.18;;;11.10;99.90;;;;;;4926021;29;20464;-63
2021/12/30 08:52:33;;;;;;;18.67;9.80;;;11.10;99.90;;;;;;4908823;29;20049;-64
2021/12/30 08:55:00;;;;;;;22.95;10.68;;;11.10;99.90;;;;;;4921251;29;20037;-63
2021/12/30 08:57:26;;;;;;;22.38;11.00;;;11.20;99.90;;;;;;4919538;29;20056;-66
2021/12/30 08:59:52;;;;;;;21.02;10.90;;;11.20;99.90;;;;;;4909455;29;20048;-63
2021/12/30 09:02:18;;;;;;;26.00;11.68;;;11.20;99.90;;;;;;4909032;29;20074;-62
2021/12/30 09:04:46;;;;;;;21.67;10.90;;;11.20;99.90;;;;;;4907919;29;20146;-63
2021/12/30 09:07:14;;;;;;;18.70;10.45;;;11.20;99.90;;;;;;4926297;29;20311;-63
2021/12/30 09:09:40;;;;;;;20.33;10.48;;;11.20;99.90;;;;;;4941430;29;20054;-63
2021/12/30 09:12:07;;;;;;;19.55;9.45;;;11.30;99.90;;;;;;4909726;29;20521;-63
2021/12/30 09:14:33;;;;;;;17.63;9.05;;;11.30;99.90;;;;;;4908631;29;20050;-62
2021/12/30 09:16:58;;;;;;;22.05;10.25;;;11.30;99.90;;;;;;4925473;29;20100;-63
2021/12/30 09:19:24;;;;;;;20.17;9.07;;;11.30;99.90;;;;;;4913056;29;20103;-64
2021/12/30 09:21:50;;;;;;;20.23;9.30;;;11.30;99.90;;;;;;4912959;29;20108;-63
2021/12/30 09:24:15;;;;;;;17.85;10.27;;;11.30;99.90;;;;;;4929859;29;20048;-63
2021/12/30 09:26:41;;;;;;;30.23;10.73;;;11.30;99.90;;;;;;4916860;29;20079;-63
2021/12/30 09:29:10;;;;;;;26.10;10.20;;;11.30;99.90;;;;;;4942235;29;20052;-64
2021/12/30 09:31:41;;;;;;;23.00;10.15;;;11.30;99.90;;;;;;4946778;29;20055;-63
2021/12/30 09:34:07;;;;;;;22.30;9.32;;;11.30;99.90;;;;;;4912784;29;20590;-64
2021/12/30 09:36:33;;;;;;;28.52;11.45;;;11.30;99.90;;;;;;4897510;29;20083;-68
2021/12/30 09:38:59;;;;;;;25.90;10.45;;;11.30;99.90;;;;;;4925000;29;20151;-62
2021/12/30 09:41:26;;;;;;;20.48;10.82;;;11.30;99.90;;;;;;4927910;29;20055;-65
2021/12/30 09:43:52;;;;;;;25.40;10.88;;;11.30;99.90;;;;;;4927062;29;20044;-63
2021/12/30 09:46:18;;;;;;;28.00;10.70;;;11.30;99.90;;;;;;4926067;29;20040;-62
2021/12/30 09:48:44;;;;;;;31.58;10.70;;;11.40;99.90;;;;;;4909897;29;20055;-63
2021/12/30 09:51:10;;;;;;;;;;;11.30;99.90;;;;;;4929188;29;20040;-63
2021/12/30 09:53:36;;;;;;;27.23;10.32;;;11.30;99.90;;;;;;4928784;29;19977;-64
2021/12/30 09:56:02;;;;;;;25.42;10.27;;;11.30;99.90;;;;;;4911653;29;20411;-62
2021/12/30 09:58:29;;;;;;;25.33;11.00;;;11.30;99.90;;;;;;4926809;29;20040;-61
2021/12/30 10:00:56;;;;;;;31.05;12.02;;;11.30;99.90;;;;;;4921248;29;20058;-62
2021/12/30 10:03:22;;;;;;;34.33;12.80;;;11.40;99.90;;;;;;4922672;29;20052;-62
2021/12/30 10:05:48;;;;;;;29.88;12.35;;;11.40;99.90;;;;;;4911126;29;20075;-63
2021/12/30 10:08:26;;;;;;;38.53;13.80;;;11.40;99.90;;;;;;4902559;29;20059;-62
2021/12/30 10:10:56;;;;;;;33.03;12.38;;;11.40;99.90;;;;;;4909022;29;20060;-62
2021/12/30 10:13:31;;;;;;;36.70;11.73;;;11.40;99.90;;;;;;4926688;29;20063;-62
2021/12/30 10:16:00;;;;;;;37.83;13.23;;;11.40;99.90;;;;;;4928064;29;20044;-62
2021/12/30 10:18:42;;;;;;;33.17;12.02;;;11.40;99.90;;;;;;4926049;29;20044;-62
2021/12/30 10:21:17;;;;;;;39.10;14.07;;;11.40;99.90;;;;;;4941397;29;20071;-63
2021/12/30 10:23:50;;;;;;;32.45;12.23;;;11.40;99.90;;;;;;4925405;29;20069;-63
2021/12/30 10:26:16;;;;;;;31.60;10.75;;;11.40;99.90;;;;;;4909485;29;20063;-63
2021/12/30 10:28:44;;;;;;;;;;;11.40;99.90;;;;;;4916128;29;20056;-65
2021/12/30 10:31:12;;;;;;;39.53;10.30;;;11.40;99.90;;;;;;4927343;29;19946;-65
2021/12/30 10:33:59;;;;;;;38.90;10.75;;;11.40;99.90;;;;;;4908038;29;20138;-62
2021/12/30 10:36:28;;;;;;;36.67;10.95;;;11.50;99.90;;;;;;4922826;29;20151;-63
2021/12/30 10:38:55;;;;;;;34.78;10.90;;;11.40;99.90;;;;;;4923720;29;20055;-64
2021/12/30 10:41:24;;;;;;;39.47;11.68;;;11.40;99.90;;;;;;4928234;29;20044;-61
2021/12/30 10:43:55;;;;;;;36.08;10.68;;;11.50;99.90;;;;;;4926731;29;20076;-62
2021/12/30 10:46:28;;;;;;;34.92;11.38;;;11.50;99.90;;;;;;4910983;29;20132;-64
2021/12/30 10:49:11;;;;;;;37.78;12.88;;;11.50;99.90;;;;;;4942805;29;20075;-65
2021/12/30 10:51:42;;;;;;;37.00;11.98;;;11.50;99.90;;;;;;4927837;29;20075;-66
2021/12/30 10:54:30;;;;;;;42.08;12.15;;;11.50;99.90;;;;;;4894536;29;20060;-63
2021/12/30 10:57:01;;;;;;;29.95;10.88;;;11.50;99.90;;;;;;4911125;29;20056;-65
2021/12/30 10:59:29;;;;;;;40.90;12.45;;;11.50;99.90;;;;;;4896758;29;20084;-66
2021/12/30 11:02:12;;;;;;;41.97;12.80;;;11.50;99.90;;;;;;4917534;29;20045;-65
2021/12/30 11:04:49;;;;;;;48.05;11.82;;;11.50;99.90;;;;;;4914688;29;20055;-64
2021/12/30 11:07:21;;;;;;;40.58;11.07;;;11.50;99.90;;;;;;4896501;29;20052;-64
2021/12/30 11:09:53;;;;;;;49.60;10.85;;;11.50;99.90;;;;;;4928821;29;20184;-65
2021/12/30 11:12:31;;;;;;;43.03;10.63;;;11.50;99.90;;;;;;4928552;29;20096;-66
2021/12/30 11:15:05;;;;;;;48.58;11.50;;;11.50;99.90;;;;;;4928956;29;20048;-68
2021/12/30 11:17:35;;;;;;;47.85;11.32;;;11.50;99.90;;;;;;4911604;29;20056;-67
2021/12/30 11:20:08;;;;;;;46.63;9.95;;;11.50;99.90;;;;;;4923188;29;20036;-65
2021/12/30 11:22:36;;;;;;;47.42;12.55;;;11.50;99.90;;;;;;4928461;29;20067;-64
2021/12/30 11:25:09;;;;;;;45.17;11.05;;;11.50;99.90;;;;;;4928597;29;20056;-64
2021/12/30 11:27:35;;;;;;;49.97;11.40;;;11.50;99.90;;;;;;4911419;29;20044;-64
2021/12/30 11:30:03;;;;;;;52.65;12.20;;;11.50;99.90;;;;;;4926227;29;20048;-64
2021/12/30 11:32:31;;;;;;;53.72;12.02;;;11.50;99.90;;;;;;4946147;29;20044;-64
2021/12/30 11:34:58;;;;;;;55.15;12.43;;;11.50;99.90;;;;;;4935046;29;20059;-64
2021/12/30 11:37:24;;;;;;;55.95;13.52;;;11.50;99.90;;;;;;4939861;29;20122;-64
2021/12/30 11:39:54;;;;;;;51.63;12.10;;;11.50;99.90;;;;;;4936671;29;20055;-64
2021/12/30 11:42:24;;;;;;;56.75;12.65;;;11.50;99.90;;;;;;4911541;29;20084;-64
2021/12/30 11:44:55;;;;;;;63.80;13.57;;;11.50;99.90;;;;;;4934294;29;20091;-64
2021/12/30 11:47:35;;;;;;;63.03;13.45;;;11.50;99.90;;;;;;4928453;29;20051;-64
2021/12/30 11:50:06;;;;;;;52.10;12.35;;;11.50;99.90;;;;;;4928394;29;20505;-65
2021/12/30 11:52:51;;;;;;;62.15;13.30;;;11.50;99.90;;;;;;4926932;29;20096;-64
2021/12/30 11:55:43;;;;;;;52.35;12.43;;;11.50;99.90;;;;;;4911154;29;20052;-64
2021/12/30 11:58:27;;;;;;;70.13;13.15;;;11.50;99.90;;;;;;4928071;29;20143;-64
2021/12/30 12:01:00;;;;;;;52.88;12.00;;;11.50;99.90;;;;;;4911085;29;20100;-64
2021/12/30 12:03:34;;;;;;;68.22;12.80;;;11.50;99.90;;;;;;4909184;29;20088;-64
2021/12/30 12:06:01;;;;;;;63.80;13.48;;;11.50;99.90;;;;;;4909482;29;20499;-65
2021/12/30 12:08:43;;;;;;;75.00;13.23;;;11.60;99.90;;;;;;4909009;29;20076;-64
2021/12/30 12:11:49;;;;;;;59.55;13.30;;;11.60;99.90;;;;;;4892263;29;20072;-63
2021/12/30 12:14:18;;;;;;;63.03;12.18;;;11.60;99.90;;;;;;4927540;29;20084;-64
2021/12/30 12:16:49;;;;;;;67.60;12.02;;;11.60;99.90;;;;;;4910481;29;20055;-64
2021/12/30 12:19:41;;;;;;;58.88;10.48;;;11.60;99.90;;;;;;4910955;29;20048;-63
2021/12/30 12:22:28;;;;;;;54.53;10.98;;;11.60;99.90;;;;;;4924160;29;20059;-63
2021/12/30 12:25:24;;;;;;;51.97;10.63;;;11.60;99.90;;;;;;4908277;29;20060;-63
2021/12/30 12:27:53;;;;;;;53.75;10.18;;;11.60;99.90;;;;;;4916904;29;20060;-63
2021/12/30 12:30:27;;;;;;;60.10;11.85;;;11.70;99.90;;;;;;4927959;29;20044;-63
2021/12/30 12:32:53;;;;;;;48.03;11.55;;;11.70;99.90;;;;;;4927401;29;20052;-63
2021/12/30 12:35:19;;;;;;;46.80;10.13;;;11.70;99.90;;;;;;4919921;29;20056;-63
2021/12/30 12:37:47;;;;;;;46.07;11.03;;;11.70;99.90;;;;;;4927654;29;20060;-63
2021/12/30 12:40:16;;;;;;;51.40;9.48;;;11.70;99.90;;;;;;4927516;29;20392;-63
2021/12/30 12:42:51;;;;;;;51.08;10.32;;;11.70;99.90;;;;;;4910996;29;20047;-64